Time;durP1;ratioP1;P1;durP2;ratioP2;P2;SDS_P1;SDS_P2;PMS_P1;PMS_P2;Temp;Humidity;BMP_temperature;BMP_pressure;BME280_temperature;BME280_humidity;BME280_pressure;Samples;Min_cycle;Max_cycle;Signal;HPM_P1;HPM_P2
2023/11/22 00:00:13;;;;;;;2.95;1.48;;;11.30;91.50;;;;;;5051381;28;20032;-72
2023/11/22 00:02:39;;;;;;;3.67;1.30;;;11.30;91.70;;;;;;5051541;28;20025;-72
2023/11/22 00:05:05;;;;;;;3.30;1.48;;;11.40;91.30;;;;;;5051624;28;20036;-73
2023/11/22 00:07:34;;;;;;;2.58;1.23;;;11.40;91.00;;;;;;5050462;28;20116;-72
2023/11/22 00:10:01;;;;;;;2.25;1.33;;;11.40;91.30;;;;;;5050110;28;20028;-72
2023/11/22 00:12:27;;;;;;;1.52;1.15;;;11.40;91.50;;;;;;5049312;28;20512;-74
2023/11/22 00:14:54;;;;;;;6.45;1.35;;;11.40;91.40;;;;;;5049649;28;20444;-72
2023/11/22 00:17:19;;;;;;;2.67;1.35;;;11.40;91.40;;;;;;5048233;28;20492;-73
2023/11/22 00:19:46;;;;;;;2.15;1.40;;;11.30;91.40;;;;;;5049968;28;20056;-72
2023/11/22 00:22:14;;;;;;;3.83;1.52;;;11.40;91.60;;;;;;5049592;28;20048;-72
2023/11/22 00:24:45;;;;;;;2.33;1.40;;;11.40;91.60;;;;;;5049763;28;20017;-73
2023/11/22 00:27:15;;;;;;;3.78;1.42;;;11.30;91.50;;;;;;5050820;28;20021;-72
2023/11/22 00:29:41;;;;;;;4.28;1.25;;;11.30;91.50;;;;;;5050623;28;20028;-73
2023/11/22 00:32:07;;;;;;;3.42;1.48;;;11.30;91.40;;;;;;5050688;28;20473;-72
2023/11/22 00:34:33;;;;;;;3.67;1.20;;;11.30;91.50;;;;;;5050678;28;20439;-72
2023/11/22 00:36:59;;;;;;;3.03;1.05;;;11.30;91.70;;;;;;5050936;28;20033;-73
2023/11/22 00:39:25;;;;;;;2.20;1.20;;;11.30;91.70;;;;;;5050559;28;20060;-73
2023/11/22 00:41:50;;;;;;;2.55;0.98;;;11.20;91.70;;;;;;5049533;28;20036;-72
2023/11/22 00:44:16;;;;;;;2.45;1.10;;;11.20;91.10;;;;;;5047880;28;20025;-72
2023/11/22 00:46:42;;;;;;;2.95;1.30;;;11.20;90.80;;;;;;5047997;28;20031;-73
2023/11/22 00:49:11;;;;;;;2.25;1.27;;;11.20;90.40;;;;;;5050098;28;20044;-72
2023/11/22 00:51:36;;;;;;;1.08;0.70;;;11.20;90.40;;;;;;5050489;28;20035;-73
2023/11/22 00:54:02;;;;;;;2.28;1.10;;;11.20;89.50;;;;;;5049590;28;20029;-72
2023/11/22 00:56:28;;;;;;;2.60;1.20;;;11.30;88.10;;;;;;5050094;28;20033;-72
2023/11/22 00:58:55;;;;;;;1.88;0.98;;;11.30;88.30;;;;;;5049245;28;20086;-73
2023/11/22 01:01:21;;;;;;;1.70;1.15;;;11.30;88.80;;;;;;5050156;28;20052;-72
2023/11/22 01:03:46;;;;;;;2.22;0.82;;;11.20;90.00;;;;;;5049279;28;20400;-73
2023/11/22 01:06:13;;;;;;;2.20;1.17;;;11.20;90.20;;;;;;5049546;28;20366;-73
2023/11/22 01:08:39;;;;;;;2.15;1.10;;;11.30;90.00;;;;;;5051507;28;20096;-72
2023/11/22 01:11:08;;;;;;;3.20;1.00;;;11.20;90.10;;;;;;5051654;28;20044;-72
2023/11/22 01:13:40;;;;;;;1.88;1.10;;;11.20;90.20;;;;;;5050848;28;20135;-73
2023/11/22 01:16:07;;;;;;;1.93;1.10;;;11.20;90.00;;;;;;5051958;28;20029;-72
2023/11/22 01:18:32;;;;;;;1.30;0.82;;;11.10;90.00;;;;;;5051156;28;20928;-72
2023/11/22 01:20:58;;;;;;;2.58;0.90;;;11.10;90.20;;;;;;5051773;28;20032;-72
2023/11/22 01:23:24;;;;;;;3.38;1.42;;;11.10;90.30;;;;;;5052289;28;20025;-72
2023/11/22 01:25:50;;;;;;;3.38;0.88;;;11.10;90.20;;;;;;5051483;28;20063;-72
2023/11/22 01:28:17;;;;;;;1.83;1.10;;;11.10;90.10;;;;;;5052203;28;20122;-72
2023/11/22 01:30:45;;;;;;;1.80;0.98;;;11.10;89.10;;;;;;5050956;28;20057;-72
2023/11/22 01:33:12;;;;;;;1.83;0.80;;;11.10;89.90;;;;;;5052595;28;20108;-72
2023/11/22 01:35:38;;;;;;;1.35;0.80;;;11.10;89.00;;;;;;5055071;28;20079;-73
2023/11/22 01:38:04;;;;;;;2.00;0.82;;;11.10;88.30;;;;;;5054435;28;20106;-72
2023/11/22 01:40:31;;;;;;;0.98;0.70;;;11.10;87.60;;;;;;5054682;28;20021;-73
2023/11/22 01:42:58;;;;;;;1.38;0.70;;;11.20;84.30;;;;;;5055836;28;20032;-72
2023/11/22 01:45:23;;;;;;;1.05;0.80;;;11.20;84.80;;;;;;5055294;28;20065;-72
2023/11/22 01:47:50;;;;;;;1.73;0.93;;;11.20;84.00;;;;;;5054919;28;20029;-72
2023/11/22 01:50:16;;;;;;;4.15;0.80;;;11.20;84.40;;;;;;5055995;28;20021;-73
2023/11/22 01:52:42;;;;;;;3.75;0.82;;;11.30;84.20;;;;;;5069646;28;20028;-72
2023/11/22 01:55:09;;;;;;;1.88;0.80;;;11.30;80.80;;;;;;5054647;28;20086;-72
2023/11/22 01:57:35;;;;;;;1.15;0.70;;;11.30;81.80;;;;;;5053650;28;20041;-72
2023/11/22 02:00:07;;;;;;;1.23;0.57;;;11.30;82.40;;;;;;5051772;28;20432;-72
2023/11/22 02:02:36;;;;;;;1.77;0.82;;;11.30;82.30;;;;;;5051856;28;20067;-72
2023/11/22 02:05:02;;;;;;;0.95;0.70;;;11.30;83.10;;;;;;5051834;28;20417;-72
2023/11/22 02:07:28;;;;;;;2.78;0.55;;;11.30;82.60;;;;;;5054836;28;20025;-72
2023/11/22 02:09:54;;;;;;;2.00;0.80;;;11.40;79.40;;;;;;5055021;28;20215;-71
2023/11/22 02:12:20;;;;;;;1.15;0.60;;;11.40;80.30;;;;;;5054096;28;20131;-72
2023/11/22 02:14:46;;;;;;;1.88;0.60;;;11.50;80.50;;;;;;5052825;28;20080;-72
2023/11/22 02:17:12;;;;;;;2.67;0.80;;;11.50;78.40;;;;;;5053094;28;20048;-72
2023/11/22 02:22:46;;;;;;;0.75;0.70;;;11.50;76.50;;;;;;5053942;28;20452;-73
2023/11/22 02:25:12;;;;;;;1.45;0.65;;;11.60;76.70;;;;;;5053457;28;20032;-72
2023/11/22 02:27:39;;;;;;;1.83;0.60;;;11.60;76.50;;;;;;5048791;28;20025;-72
2023/11/22 02:30:06;;;;;;;1.08;0.60;;;11.60;77.30;;;;;;5033637;28;20049;-72
2023/11/22 02:32:33;;;;;;;0.90;0.50;;;11.60;77.70;;;;;;5032911;28;20493;-72
2023/11/22 02:34:59;;;;;;;1.35;0.60;;;11.60;76.60;;;;;;5032502;28;20025;-72
2023/11/22 02:37:25;;;;;;;1.52;0.50;;;11.60;74.30;;;;;;5032102;28;20033;-72
2023/11/22 02:40:19;;;;;;;0.52;0.50;;;11.60;73.70;;;;;;5032509;28;20095;-72
2023/11/22 02:42:49;;;;;;;0.50;0.50;;;11.60;75.40;;;;;;5032349;28;20096;-74
2023/11/22 02:45:22;;;;;;;0.70;0.40;;;11.70;76.10;;;;;;5032160;28;20029;-74
2023/11/22 02:47:49;;;;;;;1.10;0.60;;;11.70;72.60;;;;;;5032936;28;20529;-75
2023/11/22 02:50:16;;;;;;;1.73;0.60;;;11.70;73.50;;;;;;5033534;28;20028;-72
2023/11/22 02:52:42;;;;;;;1.80;0.65;;;11.70;74.40;;;;;;5033433;28;20029;-73
2023/11/22 02:55:11;;;;;;;2.50;0.70;;;11.70;72.90;;;;;;5033267;28;20057;-74
2023/11/22 02:57:40;;;;;;;0.80;0.50;;;11.80;73.30;;;;;;5031911;28;20037;-74
2023/11/22 03:00:07;;;;;;;1.58;0.70;;;11.70;73.10;;;;;;5033303;28;20033;-73
2023/11/22 03:02:34;;;;;;;1.35;0.80;;;11.70;73.00;;;;;;5033080;28;20392;-74
2023/11/22 03:05:00;;;;;;;3.60;0.57;;;11.80;73.60;;;;;;5032945;28;20071;-74
2023/11/22 03:07:26;;;;;;;0.80;0.60;;;11.80;70.90;;;;;;5032933;28;20034;-75
2023/11/22 03:09:53;;;;;;;1.08;0.55;;;11.80;71.20;;;;;;5031066;28;20105;-72
2023/11/22 03:12:20;;;;;;;1.17;0.75;;;11.70;72.60;;;;;;5031246;28;20050;-73
2023/11/22 03:14:46;;;;;;;0.82;0.40;;;11.80;73.20;;;;;;5031297;28;20048;-74
2023/11/22 03:17:13;;;;;;;1.10;0.50;;;11.80;69.30;;;;;;5031347;28;20544;-73
2023/11/22 03:19:39;;;;;;;1.40;0.80;;;11.80;70.40;;;;;;5031152;28;20409;-73
2023/11/22 03:22:06;;;;;;;2.28;0.65;;;11.80;71.90;;;;;;5046527;28;20021;-74
2023/11/22 03:24:34;;;;;;;1.17;0.60;;;11.80;72.60;;;;;;5051280;28;20017;-74
2023/11/22 03:27:01;;;;;;;2.03;0.90;;;11.80;73.40;;;;;;5050476;28;20075;-74
2023/11/22 03:29:27;;;;;;;1.15;0.68;;;11.80;73.20;;;;;;5052045;28;20029;-72
2023/11/22 03:31:53;;;;;;;3.20;0.68;;;11.80;71.10;;;;;;5051343;28;20586;-73
2023/11/22 03:34:22;;;;;;;3.75;0.80;;;11.80;71.80;;;;;;5051256;28;20048;-73
2023/11/22 03:36:48;;;;;;;1.92;0.88;;;11.80;73.00;;;;;;5050775;28;20393;-74
2023/11/22 03:39:15;;;;;;;2.40;0.90;;;11.70;73.70;;;;;;5051941;28;20043;-75
2023/11/22 03:41:42;;;;;;;0.93;0.55;;;11.70;73.60;;;;;;5050978;28;20024;-73
2023/11/22 03:44:11;;;;;;;1.05;0.50;;;11.70;73.70;;;;;;5050369;28;20021;-74
2023/11/22 03:46:37;;;;;;;0.57;0.47;;;11.70;73.10;;;;;;5050917;28;20075;-73
2023/11/22 03:49:09;;;;;;;0.70;0.50;;;11.70;72.40;;;;;;5052234;28;20032;-73
2023/11/22 03:51:36;;;;;;;0.93;0.60;;;11.70;72.20;;;;;;5053255;28;20036;-74
2023/11/22 03:54:02;;;;;;;1.20;0.60;;;11.70;71.70;;;;;;5052974;28;20037;-72
2023/11/22 03:56:29;;;;;;;2.17;0.60;;;11.70;72.50;;;;;;5052608;28;20096;-74
2023/11/22 03:58:55;;;;;;;4.13;0.50;;;11.70;72.10;;;;;;5052845;28;20033;-73
2023/11/22 04:01:21;;;;;;;1.05;0.50;;;11.70;72.10;;;;;;5053111;28;20032;-73
2023/11/22 04:03:50;;;;;;;0.63;0.50;;;11.70;71.20;;;;;;5052701;28;20025;-72
2023/11/22 04:06:16;;;;;;;0.90;0.57;;;11.70;71.70;;;;;;5052630;28;20498;-73
2023/11/22 04:08:45;;;;;;;1.55;0.80;;;11.70;72.20;;;;;;5053036;28;20035;-73
2023/11/22 04:11:12;;;;;;;0.60;0.40;;;11.70;72.10;;;;;;5053431;28;20048;-74
2023/11/22 04:13:38;;;;;;;3.92;3.30;;;11.70;71.00;;;;;;5052777;28;20482;-74
2023/11/22 04:16:08;;;;;;;1.30;0.70;;;11.60;71.50;;;;;;5052526;28;20017;-71
2023/11/22 04:18:35;;;;;;;1.38;0.65;;;11.70;71.90;;;;;;5052708;28;20025;-73
2023/11/22 04:21:03;;;;;;;2.20;1.20;;;11.70;72.60;;;;;;5052656;28;20033;-73
2023/11/22 04:23:28;;;;;;;1.25;0.90;;;11.60;73.10;;;;;;5052794;28;20107;-73
2023/11/22 04:25:55;;;;;;;1.08;0.75;;;11.60;74.30;;;;;;5052564;28;20064;-74
2023/11/22 04:28:20;;;;;;;1.58;0.77;;;11.60;73.20;;;;;;5053145;28;20021;-72
2023/11/22 04:30:46;;;;;;;2.20;1.13;;;11.60;71.20;;;;;;5052421;28;20020;-72
2023/11/22 04:33:12;;;;;;;1.52;0.40;;;11.70;71.90;;;;;;5052486;28;20017;-72
2023/11/22 04:35:38;;;;;;;0.85;0.60;;;11.70;69.50;;;;;;5052499;28;20027;-72
2023/11/22 04:38:04;;;;;;;1.27;0.50;;;11.70;69.70;;;;;;5051144;28;20412;-72
2023/11/22 04:40:30;;;;;;;6.18;1.40;;;11.70;69.40;;;;;;5052370;28;20067;-72
2023/11/22 04:42:56;;;;;;;0.65;0.50;;;11.70;71.30;;;;;;5052204;28;20029;-71
2023/11/22 04:45:22;;;;;;;2.75;0.60;;;11.70;70.90;;;;;;5049375;28;20086;-72
2023/11/22 04:47:48;;;;;;;1.33;0.70;;;11.70;72.30;;;;;;5048168;28;20032;-71
2023/11/22 04:50:14;;;;;;;1.00;0.55;;;11.70;71.20;;;;;;5050195;28;20068;-72
2023/11/22 04:52:39;;;;;;;1.13;0.65;;;11.70;71.70;;;;;;5052000;28;20464;-71
2023/11/22 04:55:06;;;;;;;1.00;0.60;;;11.60;71.30;;;;;;5050746;28;20029;-71
2023/11/22 04:57:31;;;;;;;2.22;0.70;;;11.60;72.40;;;;;;5051948;28;20032;-71
2023/11/22 04:59:57;;;;;;;3.53;0.80;;;11.60;72.30;;;;;;5052320;28;20013;-71
2023/11/22 05:02:23;;;;;;;1.85;0.70;;;11.60;72.80;;;;;;5051867;28;20174;-73
2023/11/22 05:04:49;;;;;;;1.33;0.80;;;11.50;72.50;;;;;;5052070;28;20029;-72
2023/11/22 05:07:15;;;;;;;1.13;0.50;;;11.50;73.40;;;;;;5051049;28;20017;-72
2023/11/22 05:09:43;;;;;;;1.48;0.73;;;11.50;73.10;;;;;;5052201;28;20377;-72
2023/11/22 05:12:10;;;;;;;0.80;0.55;;;11.60;71.40;;;;;;5051636;28;20071;-71
2023/11/22 05:14:36;;;;;;;1.13;0.63;;;11.50;71.40;;;;;;5051673;28;20442;-72
2023/11/22 05:17:03;;;;;;;0.63;0.43;;;11.50;71.20;;;;;;5051582;28;20048;-72
2023/11/22 05:19:30;;;;;;;1.85;0.70;;;11.50;71.40;;;;;;5051872;28;20028;-71
2023/11/22 05:21:55;;;;;;;1.27;0.60;;;11.50;71.30;;;;;;5052330;28;20016;-72
2023/11/22 05:24:21;;;;;;;0.93;0.63;;;11.50;72.10;;;;;;5051817;28;20029;-71
2023/11/22 05:26:47;;;;;;;5.20;0.82;;;11.50;71.40;;;;;;5051769;28;20384;-72
2023/11/22 05:29:13;;;;;;;1.60;0.60;;;11.50;72.00;;;;;;5051744;28;20099;-72
2023/11/22 05:31:39;;;;;;;1.02;0.60;;;11.50;72.10;;;;;;5051555;28;20022;-71
2023/11/22 05:34:04;;;;;;;1.13;0.60;;;11.50;72.10;;;;;;5051571;28;20100;-72
2023/11/22 05:36:30;;;;;;;1.20;0.90;;;11.50;70.60;;;;;;5051090;28;20071;-72
2023/11/22 05:38:59;;;;;;;0.88;0.60;;;11.50;71.20;;;;;;5049191;28;20029;-71
2023/11/22 05:41:25;;;;;;;2.10;0.68;;;11.50;71.30;;;;;;5049093;28;20029;-72
2023/11/22 05:43:55;;;;;;;0.60;0.60;;;11.50;71.90;;;;;;5048803;28;20029;-72
2023/11/22 05:46:22;;;;;;;2.20;0.57;;;11.50;70.70;;;;;;5048429;28;20499;-71
2023/11/22 05:48:51;;;;;;;1.00;0.65;;;11.50;71.20;;;;;;5040758;28;20044;-71
2023/11/22 05:51:17;;;;;;;0.68;0.50;;;11.50;72.30;;;;;;5048915;28;20036;-71
2023/11/22 05:53:43;;;;;;;0.38;0.35;;;11.50;70.80;;;;;;5048691;28;20064;-72
2023/11/22 05:56:09;;;;;;;0.35;0.30;;;11.60;67.20;;;;;;5049251;28;20482;-72
2023/11/22 05:58:38;;;;;;;0.60;0.30;;;11.60;66.80;;;;;;5049657;28;20033;-72
2023/11/22 06:01:07;;;;;;;0.30;0.30;;;11.70;67.30;;;;;;5049182;28;20136;-72
2023/11/22 06:03:35;;;;;;;2.97;0.68;;;11.70;67.60;;;;;;5049821;28;20025;-72
2023/11/22 06:06:04;;;;;;;5.57;0.80;;;11.80;67.30;;;;;;5049093;28;20469;-71
2023/11/22 06:08:30;;;;;;;1.23;0.50;;;11.80;68.60;;;;;;5049254;28;20107;-72
2023/11/22 06:10:58;;;;;;;6.32;0.95;;;11.70;68.20;;;;;;5050025;28;20103;-71
2023/11/22 06:13:23;;;;;;;0.85;0.30;;;11.70;68.40;;;;;;5050202;28;20049;-72
2023/11/22 06:15:50;;;;;;;1.70;0.60;;;11.80;65.00;;;;;;5049379;28;20124;-72
2023/11/22 06:18:15;;;;;;;0.90;0.50;;;11.70;66.20;;;;;;5049286;28;20037;-71
2023/11/22 06:20:42;;;;;;;2.03;0.60;;;11.80;68.00;;;;;;5053065;28;20021;-73
2023/11/22 06:23:08;;;;;;;1.10;0.60;;;11.80;68.30;;;;;;5055911;28;20370;-72
2023/11/22 06:25:35;;;;;;;2.85;0.60;;;11.80;68.60;;;;;;5055580;28;20021;-72
2023/11/22 06:28:02;;;;;;;5.00;0.90;;;11.80;68.90;;;;;;5055461;28;20420;-71
2023/11/22 06:30:30;;;;;;;2.15;0.60;;;11.80;69.50;;;;;;5055542;28;20474;-72
2023/11/22 06:32:56;;;;;;;1.50;0.75;;;11.70;70.20;;;;;;5055509;28;20040;-72
2023/11/22 06:35:22;;;;;;;2.90;0.70;;;11.70;70.80;;;;;;5055191;28;20033;-72
2023/11/22 06:37:48;;;;;;;0.88;0.70;;;11.70;71.90;;;;;;5055038;28;20041;-73
2023/11/22 06:40:14;;;;;;;1.48;0.65;;;11.60;71.90;;;;;;5055145;28;20028;-72
2023/11/22 06:42:40;;;;;;;0.88;0.50;;;11.60;72.20;;;;;;5055241;28;20087;-72
2023/11/22 06:45:09;;;;;;;1.77;0.90;;;11.60;71.70;;;;;;5055386;28;20464;-71
2023/11/22 06:47:36;;;;;;;1.60;0.60;;;11.60;72.60;;;;;;5055165;28;20169;-72
2023/11/22 06:50:08;;;;;;;1.27;0.70;;;11.60;71.20;;;;;;5055078;28;20025;-72
2023/11/22 06:52:41;;;;;;;;;;;11.50;71.70;;;;;;5055388;28;20029;-72
2023/11/22 06:55:07;;;;;;;2.15;0.60;;;11.50;72.90;;;;;;5055148;28;19939;-71
2023/11/22 06:57:37;;;;;;;2.15;0.70;;;11.50;73.40;;;;;;5054862;28;20040;-70
2023/11/22 07:00:09;;;;;;;1.40;0.65;;;11.50;74.00;;;;;;5054157;28;20489;-70
2023/11/22 07:02:35;;;;;;;0.70;0.60;;;11.40;73.90;;;;;;5053513;28;20079;-71
2023/11/22 07:05:03;;;;;;;0.65;0.50;;;11.40;72.90;;;;;;5053611;28;20034;-70
2023/11/22 07:07:29;;;;;;;1.30;0.88;;;11.40;72.60;;;;;;5053205;28;20033;-71
2023/11/22 07:09:58;;;;;;;3.97;0.90;;;11.40;72.50;;;;;;5029024;28;20056;-69
2023/11/22 07:12:24;;;;;;;1.92;0.75;;;11.50;71.70;;;;;;5054272;28;20048;-72
2023/11/22 07:14:51;;;;;;;1.38;0.77;;;11.40;72.30;;;;;;5054485;28;20025;-71
2023/11/22 07:17:21;;;;;;;1.38;0.63;;;11.40;72.70;;;;;;5054325;28;20504;-70
2023/11/22 07:19:48;;;;;;;1.15;0.50;;;11.40;72.60;;;;;;5053789;28;20029;-71
2023/11/22 07:22:19;;;;;;;0.68;0.57;;;11.50;70.90;;;;;;5053596;28;20023;-69
2023/11/22 07:24:47;;;;;;;2.00;0.57;;;11.50;71.10;;;;;;5054250;28;20013;-71
2023/11/22 07:27:14;;;;;;;0.50;0.32;;;11.60;71.30;;;;;;5054447;28;20017;-70
2023/11/22 07:29:43;;;;;;;2.53;0.50;;;11.60;69.50;;;;;;5052317;28;20481;-71
2023/11/22 07:32:10;;;;;;;1.10;0.60;;;11.60;68.80;;;;;;5053710;28;20516;-73
2023/11/22 07:34:37;;;;;;;0.90;0.63;;;11.70;69.20;;;;;;5054015;28;20032;-71
2023/11/22 07:37:03;;;;;;;1.20;0.40;;;11.70;69.70;;;;;;5053695;28;20044;-71
2023/11/22 07:39:29;;;;;;;1.20;0.63;;;11.70;69.60;;;;;;5053824;28;20017;-71
2023/11/22 07:41:55;;;;;;;6.28;0.88;;;11.70;70.30;;;;;;5053832;28;20052;-71
2023/11/22 07:44:22;;;;;;;1.27;0.60;;;11.70;70.30;;;;;;5053968;28;20104;-74
2023/11/22 07:46:48;;;;;;;0.75;0.47;;;11.70;70.60;;;;;;5054324;28;20515;-71
2023/11/22 07:49:14;;;;;;;1.40;0.50;;;11.70;70.40;;;;;;5053643;28;20029;-71
2023/11/22 07:51:41;;;;;;;1.60;0.90;;;11.70;69.10;;;;;;5053210;28;20500;-81
2023/11/22 07:54:08;;;;;;;1.30;0.73;;;11.70;70.00;;;;;;5053446;28;20021;-75
2023/11/22 07:56:34;;;;;;;0.68;0.55;;;11.70;71.20;;;;;;5053295;28;20052;-74
2023/11/22 07:59:00;;;;;;;1.60;0.63;;;11.80;68.90;;;;;;5053276;28;20110;-72
2023/11/22 08:01:25;;;;;;;0.80;0.57;;;11.80;68.40;;;;;;5051872;28;20033;-72
2023/11/22 08:03:51;;;;;;;1.83;0.70;;;11.80;69.60;;;;;;5053055;28;20024;-70
2023/11/22 08:06:18;;;;;;;1.52;0.57;;;11.90;68.80;;;;;;5053334;28;20416;-70
2023/11/22 08:08:45;;;;;;;0.98;0.50;;;11.90;68.30;;;;;;5052531;28;20489;-70
2023/11/22 08:11:14;;;;;;;1.77;0.40;;;11.90;67.10;;;;;;5053222;28;20029;-71
2023/11/22 08:13:44;;;;;;;1.33;0.47;;;12.00;68.30;;;;;;5053227;28;20080;-71
2023/11/22 08:16:13;;;;;;;2.80;0.47;;;12.00;67.80;;;;;;5052841;28;20381;-70
2023/11/22 08:18:40;;;;;;;0.77;0.50;;;12.10;68.70;;;;;;5052562;28;20039;-71
2023/11/22 08:21:06;;;;;;;0.60;0.45;;;12.20;68.60;;;;;;5052677;28;20419;-70
2023/11/22 08:23:32;;;;;;;0.60;0.50;;;12.10;68.80;;;;;;5052677;28;20019;-69
2023/11/22 08:26:01;;;;;;;0.93;0.40;;;12.20;67.20;;;;;;5051563;28;20047;-75
2023/11/22 08:28:27;;;;;;;1.15;0.40;;;12.20;67.20;;;;;;5052772;28;20017;-72
2023/11/22 08:30:53;;;;;;;1.42;0.57;;;12.30;67.10;;;;;;5053054;28;20054;-72
2023/11/22 08:33:19;;;;;;;1.20;0.60;;;12.30;67.40;;;;;;5052385;28;20409;-72
2023/11/22 08:35:50;;;;;;;0.68;0.60;;;12.20;69.00;;;;;;5052147;28;20025;-71
2023/11/22 08:38:16;;;;;;;0.88;0.50;;;12.20;69.20;;;;;;5067100;28;20098;-72
2023/11/22 08:40:42;;;;;;;2.08;0.68;;;12.20;69.40;;;;;;5050582;28;20107;-70
2023/11/22 08:43:08;;;;;;;2.10;0.75;;;12.20;70.00;;;;;;5051187;28;20043;-72
2023/11/22 08:45:34;;;;;;;1.02;0.73;;;12.20;70.40;;;;;;5052797;28;20029;-74
2023/11/22 08:48:00;;;;;;;0.90;0.45;;;12.20;69.70;;;;;;5052935;28;20058;-72
2023/11/22 08:50:27;;;;;;;2.13;0.65;;;12.20;68.60;;;;;;5052837;28;20100;-72
2023/11/22 08:52:53;;;;;;;5.07;0.52;;;12.20;68.70;;;;;;5052979;28;20033;-71
2023/11/22 08:55:23;;;;;;;1.17;0.50;;;12.30;66.60;;;;;;5053120;28;20029;-72
2023/11/22 08:57:52;;;;;;;5.55;3.28;;;12.40;67.90;;;;;;5052538;28;20120;-71
2023/11/22 09:00:22;;;;;;;2.65;2.00;;;12.40;69.00;;;;;;5052599;28;20021;-72
2023/11/22 09:02:51;;;;;;;2.78;1.00;;;12.40;69.10;;;;;;5052616;28;20024;-68
2023/11/22 09:05:19;;;;;;;1.23;0.82;;;12.50;70.40;;;;;;5051747;28;20019;-72
2023/11/22 09:07:44;;;;;;;0.77;0.50;;;12.50;69.80;;;;;;5052390;28;20025;-73
2023/11/22 09:10:12;;;;;;;0.40;0.30;;;12.50;69.80;;;;;;5052712;28;20021;-72
2023/11/22 09:12:40;;;;;;;0.40;0.40;;;12.60;67.90;;;;;;5051499;28;20041;-72
2023/11/22 09:15:11;;;;;;;1.23;0.60;;;12.70;67.10;;;;;;5051517;28;20017;-73
2023/11/22 09:17:45;;;;;;;1.45;0.60;;;12.70;68.10;;;;;;5052060;28;20036;-73
2023/11/22 09:20:18;;;;;;;1.05;0.60;;;12.80;67.70;;;;;;5051930;28;20024;-72
2023/11/22 09:22:50;;;;;;;;;;;12.80;68.40;;;;;;5052660;28;20503;-71
2023/11/22 09:25:24;;;;;;;1.83;0.50;;;12.90;68.50;;;;;;5052560;28;19982;-72
2023/11/22 09:27:58;;;;;;;0.90;0.60;;;12.90;68.90;;;;;;5052834;28;20056;-72
2023/11/22 09:30:45;;;;;;;1.67;0.68;;;13.00;67.70;;;;;;5052530;28;20096;-71
2023/11/22 09:33:15;;;;;;;1.17;0.55;;;13.00;68.40;;;;;;5052594;28;20032;-72
2023/11/22 09:35:44;;;;;;;0.77;0.40;;;13.10;65.10;;;;;;5052274;28;20444;-72
2023/11/22 09:38:11;;;;;;;0.68;0.50;;;13.10;66.70;;;;;;5052114;28;20041;-72
2023/11/22 09:40:47;;;;;;;1.08;0.30;;;13.20;67.70;;;;;;5052107;28;20021;-72
2023/11/22 09:43:17;;;;;;;0.95;0.45;;;13.20;65.20;;;;;;5052335;28;20540;-72
2023/11/22 09:45:44;;;;;;;0.85;0.60;;;13.20;66.80;;;;;;5052315;28;20108;-71
2023/11/22 09:48:16;;;;;;;1.08;0.50;;;13.30;66.20;;;;;;5051493;28;20087;-72
2023/11/22 09:51:02;;;;;;;0.85;0.55;;;13.40;67.50;;;;;;5052056;28;20056;-74
2023/11/22 09:53:33;;;;;;;0.55;0.40;;;13.40;66.30;;;;;;5052787;28;20112;-73
2023/11/22 09:56:01;;;;;;;0.40;0.40;;;13.50;66.00;;;;;;5055799;28;20025;-74
2023/11/22 09:58:33;;;;;;;1.92;0.90;;;13.50;65.40;;;;;;5055977;28;20037;-74
2023/11/22 10:01:02;;;;;;;3.90;1.00;;;13.60;65.40;;;;;;5052148;28;20553;-71
2023/11/22 10:03:28;;;;;;;1.70;0.50;;;13.70;66.40;;;;;;5037886;28;20536;-71
2023/11/22 10:05:57;;;;;;;0.30;0.30;;;13.70;64.50;;;;;;5053649;28;20353;-71
2023/11/22 10:08:23;;;;;;;3.38;0.50;;;13.70;64.30;;;;;;5054182;28;20104;-72
2023/11/22 10:10:53;;;;;;;1.15;0.50;;;13.80;64.60;;;;;;5055895;28;20056;-71
2023/11/22 10:13:20;;;;;;;3.00;0.40;;;13.80;64.50;;;;;;5051722;23;20054;-71
2023/11/22 10:15:50;;;;;;;0.90;0.50;;;13.90;63.60;;;;;;5035958;28;20068;-71
2023/11/22 10:18:17;;;;;;;1.27;0.55;;;13.90;63.40;;;;;;5035758;28;20516;-71
2023/11/22 10:20:49;;;;;;;0.40;0.30;;;14.00;64.20;;;;;;5034537;28;20022;-72
2023/11/22 10:23:16;;;;;;;110.50;26.90;;;14.00;63.60;;;;;;5035064;28;20385;-72
2023/11/22 10:25:49;;;;;;;0.80;0.60;;;14.10;64.90;;;;;;5035562;28;20097;-71
2023/11/22 10:28:19;;;;;;;2.20;0.85;;;14.10;63.30;;;;;;5035636;28;20031;-73
2023/11/22 10:30:47;;;;;;;27.50;12.80;;;14.10;64.30;;;;;;5035903;28;20022;-72
2023/11/22 10:33:15;;;;;;;18.33;7.78;;;14.20;63.90;;;;;;5035883;28;20021;-72
2023/11/22 10:35:48;;;;;;;18.55;9.10;;;14.20;63.60;;;;;;5035022;28;20403;-72
2023/11/22 10:38:15;;;;;;;19.90;12.32;;;14.20;62.40;;;;;;5035354;28;20038;-73
2023/11/22 10:40:44;;;;;;;5.20;2.83;;;14.20;62.70;;;;;;5035523;28;20028;-73
2023/11/22 10:43:11;;;;;;;0.50;0.50;;;14.30;62.90;;;;;;5035638;28;20029;-73
2023/11/22 10:45:38;;;;;;;46.15;32.03;;;14.20;62.40;;;;;;5035503;28;20128;-71
2023/11/22 10:48:05;;;;;;;23.42;16.45;;;14.20;64.50;;;;;;5034914;28;20025;-73
2023/11/22 10:50:32;;;;;;;18.58;13.38;;;14.20;65.30;;;;;;5034801;28;20026;-73
2023/11/22 10:53:00;;;;;;;2.10;1.48;;;14.30;64.60;;;;;;5034667;28;20052;-73
2023/11/22 10:55:32;;;;;;;3.70;0.55;;;14.40;63.60;;;;;;5034889;28;20021;-72
2023/11/22 10:58:03;;;;;;;41.45;29.20;;;14.40;60.30;;;;;;5034661;28;20026;-73
2023/11/22 11:00:32;;;;;;;41.78;23.65;;;14.50;63.50;;;;;;5034688;28;20014;-70
2023/11/22 11:03:11;;;;;;;5.07;2.47;;;14.50;64.10;;;;;;5034443;28;20024;-73
2023/11/22 11:05:41;;;;;;;95.60;57.88;;;14.60;63.10;;;;;;5034606;28;20060;-73
2023/11/22 11:08:17;;;;;;;20.05;12.05;;;14.60;64.80;;;;;;5034636;28;20025;-73
2023/11/22 11:10:45;;;;;;;22.45;11.57;;;14.60;63.50;;;;;;5034722;28;20076;-70
2023/11/22 11:13:11;;;;;;;3.35;1.02;;;14.70;63.20;;;;;;5034457;28;20100;-69
2023/11/22 11:15:48;;;;;;;0.80;0.40;;;14.70;63.90;;;;;;5034153;28;20032;-72
2023/11/22 11:18:15;;;;;;;2.13;0.80;;;14.80;62.90;;;;;;5032782;28;20360;-72
2023/11/22 11:20:52;;;;;;;1.05;0.52;;;14.80;62.80;;;;;;5033330;28;20484;-71
2023/11/22 11:23:27;;;;;;;2.45;0.60;;;14.80;61.10;;;;;;5034018;28;20025;-72
2023/11/22 11:25:57;;;;;;;0.85;0.40;;;14.80;61.30;;;;;;5033099;28;20029;-71
2023/11/22 11:28:27;;;;;;;1.63;1.05;;;14.80;61.00;;;;;;5034025;28;20026;-70
2023/11/22 11:30:54;;;;;;;7.43;3.95;;;14.70;61.40;;;;;;5034027;28;20029;-71
2023/11/22 11:33:33;;;;;;;2.08;1.00;;;14.70;61.50;;;;;;5034147;28;20021;-75
2023/11/22 11:36:03;;;;;;;1.58;1.27;;;14.60;61.40;;;;;;5034266;28;20470;-74
2023/11/22 11:38:35;;;;;;;0.70;0.40;;;14.50;61.90;;;;;;5034050;28;20307;-72
2023/11/22 11:41:13;;;;;;;2.92;1.77;;;14.50;62.50;;;;;;5034271;28;20156;-70
2023/11/22 11:43:46;;;;;;;1.25;0.70;;;14.40;62.90;;;;;;5033964;28;20033;-72
2023/11/22 11:46:14;;;;;;;1.52;0.60;;;14.40;61.60;;;;;;5034081;28;20026;-74
2023/11/22 11:48:53;;;;;;;2.22;0.40;;;14.40;62.70;;;;;;5034068;28;20029;-74
2023/11/22 11:51:21;;;;;;;0.85;0.50;;;14.30;62.40;;;;;;5033813;28;20489;-73
2023/11/22 11:53:46;;;;;;;1.08;0.60;;;14.30;62.50;;;;;;5033704;28;20030;-73
2023/11/22 11:56:13;;;;;;;1.88;0.80;;;14.30;62.20;;;;;;5033600;28;20032;-74
2023/11/22 11:58:49;;;;;;;0.98;0.50;;;14.30;63.50;;;;;;5033709;28;20366;-73
2023/11/22 12:01:20;;;;;;;2.63;0.60;;;14.30;62.80;;;;;;5033629;28;20021;-73
2023/11/22 12:03:46;;;;;;;8.20;1.25;;;14.30;63.10;;;;;;5033552;28;20064;-73
2023/11/22 12:06:19;;;;;;;0.80;0.35;;;14.40;61.80;;;;;;5033529;28;20037;-73
2023/11/22 12:08:45;;;;;;;;;;;14.40;61.70;;;;;;5033896;28;20057;-74
2023/11/22 12:11:11;;;;;;;0.60;0.40;;;14.40;61.30;;;;;;5033646;28;20343;-72
2023/11/22 12:13:46;;;;;;;2.92;0.52;;;14.40;61.30;;;;;;5033588;28;20046;-74
2023/11/22 12:16:16;;;;;;;10.95;0.65;;;14.40;61.30;;;;;;5032960;28;20121;-74
2023/11/22 12:18:47;;;;;;;0.80;0.50;;;14.40;62.30;;;;;;5033490;28;20041;-72
2023/11/22 12:21:14;;;;;;;0.60;0.30;;;14.40;62.40;;;;;;5033275;28;20026;-72
2023/11/22 12:23:47;;;;;;;0.63;0.40;;;14.50;62.50;;;;;;5033137;28;20030;-72
2023/11/22 12:26:16;;;;;;;1.38;0.70;;;14.60;62.50;;;;;;5033211;28;20040;-71
2023/11/22 12:28:45;;;;;;;2.53;0.50;;;14.60;61.80;;;;;;5033055;28;20453;-71
2023/11/22 12:31:13;;;;;;;2.28;0.60;;;14.70;62.60;;;;;;5033284;28;20747;-72
2023/11/22 12:33:41;;;;;;;0.90;0.50;;;14.70;62.40;;;;;;5033192;28;20582;-71
2023/11/22 12:36:13;;;;;;;1.65;0.50;;;14.80;62.80;;;;;;5033312;28;20377;-71
2023/11/22 12:38:41;;;;;;;3.90;0.70;;;14.80;61.90;;;;;;5032587;28;20037;-72
2023/11/22 12:41:06;;;;;;;1.45;0.70;;;14.90;62.10;;;;;;5032850;28;20358;-71
2023/11/22 12:43:35;;;;;;;0.77;0.55;;;14.90;62.90;;;;;;5032845;28;20029;-72
2023/11/22 12:46:03;;;;;;;0.47;0.45;;;15.00;62.60;;;;;;5032614;28;20029;-72
2023/11/22 12:48:29;;;;;;;1.08;0.50;;;14.90;62.00;;;;;;5033138;28;20040;-72
2023/11/22 12:50:57;;;;;;;0.60;0.45;;;15.00;62.40;;;;;;5032891;28;20026;-71
2023/11/22 12:53:25;;;;;;;0.70;0.50;;;15.00;62.50;;;;;;5016607;28;20034;-72